Главная страница
METAR-TAF:

METAR-TAF

Аэропорты :

Багдад, Ирак

широта: 33-15-45N, долгота: 44-14-04E, высота над уровнем моря: 35 м

Текущие метеонаблюдения

Эта сводка был подготовлена 38 минут назад, в 09:00 UTC
Ветер 12 Узел от северно-северо-западный, изменяющийся между северо-западный и северный
Температура 40°C
Влажность 13%
Давление 1006 hPa
Видимость 10 км и более
Нет облачности ниже 1500 м, и нет кучево-дождевой облачности

METAR: ORBI 070900Z 34012KT 310V010 CAVOK 40/06 Q1006 NOSIG

Время: 12:38 (09:38 UTC)

Прогноз

Эта сводка был подготовлена 11 часа и 38 минут назад, в 22:00 UTC
Прогноз действительный с 07-го 00 UTC до 07-го 24 UTC
Ветер 5 Узел от западно-северо-западный
Видимость 10 км и более
Нет облачности ниже 1500 м, и нет кучево-дождевой облачности

TAF: ORBI 062200Z 0700/0724 30005KT CAVOK

Метеонаблюдения и прогнозы для более 4000 аэропортов (сводки METAR и TAF).

Имеющиеся станции представлены на карте желтыми и красными точками.

Чтобы увидеть название станции, наведите на нее мышь.

Затем щелкните, чтобы увидеть метеонаблюдения и метеопрогнозы.

Управление картой: чтобы увеличить масштаб, щелкните зеленые кнопки с черным крестиком; чтобы уменьшить масштаб, щелкните зеленую кнопку с тире; для просмотра соседних карт щелкайте зеленые стрелки.


METAR-TAF: